Time;durP1;ratioP1;P1;durP2;ratioP2;P2;SDS_P1;SDS_P2;PMS_P1;PMS_P2;Temp;Humidity;BMP_temperature;BMP_pressure;BME280_temperature;BME280_humidity;BME280_pressure;Samples;Min_cycle;Max_cycle;Signal;HPM_P1;HPM_P2
2021/11/18 00:00:19;;;;;;;;;;;;;;;;;;1013600;28;945;-22
2021/11/18 00:00:50;;;;;;;;;;;;;;;;;;1024180;28;1485;-23
2021/11/18 00:01:21;;;;;;;;;;;;;;;;;;1024425;28;1115;-22
2021/11/18 00:01:55;;;;;;;;;;;;;;;;;;1012009;29;1501;-21
2021/11/18 00:02:25;;;;;;;;;;;;;;;;;;1012016;29;1151;-22
2021/11/18 00:02:56;;;;;;;;;;;;;;;;;;1008864;29;1053;-21
2021/11/18 00:03:27;;;;;;;;;;;;;;;;;;1009653;29;1390;-22
2021/11/18 00:03:57;;;;;;;;;;;;;;;;;;1020908;28;1536;-22
2021/11/18 00:04:29;;;;;;;;;;;;;;;;;;1021107;28;1247;-21
2021/11/18 00:05:00;;;;;;;;;;;;;;;;;;1016398;29;1023;-22
2021/11/18 00:05:31;;;;;;;;;;;;;;;;;;1012886;29;973;-22
2021/11/18 00:06:03;;;;;;;;;;;;;;;;;;1012103;29;1454;-21
2021/11/18 00:06:33;;;;;;;;;;;;;;;;;;1012309;29;998;-22
2021/11/18 00:07:04;;;;;;;;;;;;;;;;;;1009377;29;1945;-23
2021/11/18 00:07:34;;;;;;;;;;;;;;;;;;1016494;29;1123;-21
2021/11/18 00:08:06;;;;;;;;;;;;;;;;;;1017079;29;957;-21
2021/11/18 00:08:37;;;;;;;;;;;;;;;;;;1016336;29;1328;-22
2021/11/18 00:09:09;;;;;;;;;;;;;;;;;;1012480;29;1286;-22
2021/11/18 00:09:40;;;;;;;;;;;;;;;;;;1012862;29;1375;-21
2021/11/18 00:10:11;;;;;;;;;;;;;;;;;;1008366;29;1194;-22
2021/11/18 00:10:46;;;;;;;;;;;;;;;;;;1009802;29;1106;-22
2021/11/18 00:11:18;;;;;;;;;;;;;;;;;;1019835;29;1397;-22
2021/11/18 00:11:50;;;;;;;;;;;;;;;;;;1021696;28;1094;-21
2021/11/18 00:12:20;;;;;;;;;;;;;;;;;;1023890;28;1108;-21
2021/11/18 00:12:51;;;;;;;;;;;;;;;;;;1021347;28;1057;-22
2021/11/18 00:13:23;;;;;;;;;;;;;;;;;;1021646;28;915;-22
2021/11/18 00:13:54;;;;;;;;;;;;;;;;;;1020994;28;1443;-21
2021/11/18 00:14:25;;;;;;;;;;;;;;;;;;1020160;29;1185;-22
2021/11/18 00:14:56;;;;;;;;;;;;;;;;;;1020588;29;1016;-21
2021/11/18 00:15:27;;;;;;;;;;;;;;;;;;1020696;29;999;-22
2021/11/18 00:15:58;;;;;;;;;;;;;;;;;;1016270;29;1065;-22
2021/11/18 00:16:28;;;;;;;;;;;;;;;;;;1012617;29;1262;-23
2021/11/18 00:16:59;;;;;;;;;;;;;;;;;;1012752;29;1229;-22
2021/11/18 00:17:29;;;;;;;;;;;;;;;;;;1012657;29;1041;-21
2021/11/18 00:18:02;;;;;;;;;;;;;;;;;;1016325;29;1272;-22
2021/11/18 00:18:34;;;;;;;;;;;;;;;;;;1012773;29;1244;-22
2021/11/18 00:19:05;;;;;;;;;;;;;;;;;;1012606;29;1192;-22
2021/11/18 00:19:36;;;;;;;;;;;;;;;;;;1012263;29;1549;-23
2021/11/18 00:20:08;;;;;;;;;;;;;;;;;;1013172;29;1012;-22
2021/11/18 00:20:58;;;;;;;;;;;;;;;;;;1016548;29;1372;-21
2021/11/18 00:21:29;;;;;;;;;;;;;;;;;;1018123;28;1189;-22
2021/11/18 00:22:00;;;;;;;;;;;;;;;;;;1020991;28;1416;-21
2021/11/18 00:22:32;;;;;;;;;;;;;;;;;;1016387;29;1104;-21
2021/11/18 00:23:03;;;;;;;;;;;;;;;;;;1016654;29;1502;-22
2021/11/18 00:23:35;;;;;;;;;;;;;;;;;;1008429;29;1144;-23
2021/11/18 00:24:07;;;;;;;;;;;;;;;;;;1008802;29;1105;-22
2021/11/18 00:24:37;;;;;;;;;;;;;;;;;;1005685;29;1457;-22
2021/11/18 00:25:09;;;;;;;;;;;;;;;;;;1009383;29;1341;-21
2021/11/18 00:25:40;;;;;;;;;;;;;;;;;;1012733;29;1414;-21
2021/11/18 00:26:11;;;;;;;;;;;;;;;;;;1004133;29;1058;-22
2021/11/18 00:26:42;;;;;;;;;;;;;;;;;;1004886;29;1907;-22
2021/11/18 00:27:12;;;;;;;;;;;;;;;;;;1007943;29;1327;-21
2021/11/18 00:27:43;;;;;;;;;;;;;;;;;;1008754;29;1113;-22
2021/11/18 00:28:13;;;;;;;;;;;;;;;;;;1017036;29;1049;-21
2021/11/18 00:28:44;;;;;;;;;;;;;;;;;;1017528;29;1150;-22
2021/11/18 00:29:15;;;;;;;;;;;;;;;;;;1014255;29;1001;-21
2021/11/18 00:29:45;;;;;;;;;;;;;;;;;;1021950;29;1004;-21
2021/11/18 00:30:16;;;;;;;;;;;;;;;;;;1025339;28;1283;-21
2021/11/18 00:30:47;;;;;;;;;;;;;;;;;;1022034;28;952;-21
2021/11/18 00:31:19;;;;;;;;;;;;;;;;;;1017518;29;991;-22
2021/11/18 00:31:50;;;;;;;;;;;;;;;;;;1018333;29;1387;-22
2021/11/18 00:32:21;;;;;;;;;;;;;;;;;;1018250;29;1457;-22
2021/11/18 00:32:51;;;;;;;;;;;;;;;;;;1013700;29;1174;-22
2021/11/18 00:33:23;;;;;;;;;;;;;;;;;;1014065;29;1233;-22
2021/11/18 00:33:54;;;;;;;;;;;;;;;;;;1010065;29;1456;-21
2021/11/18 00:34:25;;;;;;;;;;;;;;;;;;1010228;29;1196;-21
2021/11/18 00:34:55;;;;;;;;;;;;;;;;;;1010169;29;977;-22
2021/11/18 00:35:27;;;;;;;;;;;;;;;;;;1013121;29;1364;-22
2021/11/18 00:35:58;;;;;;;;;;;;;;;;;;1017617;29;1062;-22
2021/11/18 00:36:28;;;;;;;;;;;;;;;;;;1017678;29;1371;-21
2021/11/18 00:36:59;;;;;;;;;;;;;;;;;;1017986;29;1070;-22
2021/11/18 00:37:29;;;;;;;;;;;;;;;;;;1018355;29;1132;-21
2021/11/18 00:38:00;;;;;;;;;;;;;;;;;;1021706;29;1381;-21
2021/11/18 00:38:30;;;;;;;;;;;;;;;;;;1022639;28;1049;-21
2021/11/18 00:39:03;;;;;;;;;;;;;;;;;;1022464;28;1396;-22
2021/11/18 00:39:34;;;;;;;;;;;;;;;;;;1021707;29;1079;-22
2021/11/18 00:40:06;;;;;;;;;;;;;;;;;;1017932;29;1200;-22
2021/11/18 00:40:38;;;;;;;;;;;;;;;;;;1012680;29;2250;-21
2021/11/18 00:41:10;;;;;;;;;;;;;;;;;;1010383;29;1247;-22
2021/11/18 00:41:40;;;;;;;;;;;;;;;;;;1014701;29;1240;-21
2021/11/18 00:42:10;;;;;;;;;;;;;;;;;;1014639;29;903;-22
2021/11/18 00:42:41;;;;;;;;;;;;;;;;;;1018350;29;1158;-21
2021/11/18 00:43:12;;;;;;;;;;;;;;;;;;1021467;29;1107;-22
2021/11/18 00:43:43;;;;;;;;;;;;;;;;;;1021819;29;1053;-21
2021/11/18 00:44:14;;;;;;;;;;;;;;;;;;1014072;29;926;-22
2021/11/18 00:44:44;;;;;;;;;;;;;;;;;;1013820;29;1601;-22
2021/11/18 00:45:19;;;;;;;;;;;;;;;;;;1017958;29;1001;-22
2021/11/18 00:45:50;;;;;;;;;;;;;;;;;;1018133;29;1523;-20
2021/11/18 00:46:21;;;;;;;;;;;;;;;;;;1017025;29;1331;-22
2021/11/18 00:46:52;;;;;;;;;;;;;;;;;;1013990;29;1903;-22
2021/11/18 00:47:24;;;;;;;;;;;;;;;;;;1013249;29;1708;-23
2021/11/18 00:47:55;;;;;;;;;;;;;;;;;;1018096;28;1315;-22
2021/11/18 00:48:26;;;;;;;;;;;;;;;;;;1009607;29;1287;-21
2021/11/18 00:48:57;;;;;;;;;;;;;;;;;;1009949;29;1235;-22
2021/11/18 00:49:27;;;;;;;;;;;;;;;;;;1010310;29;1358;-23
2021/11/18 00:49:58;;;;;;;;;;;;;;;;;;1009756;29;1301;-22
2021/11/18 00:50:59;;;;;;;;;;;;;;;;;;1013754;29;1137;-22
2021/11/18 00:51:31;;;;;;;;;;;;;;;;;;1011091;29;1308;-22
2021/11/18 00:52:01;;;;;;;;;;;;;;;;;;1009963;29;1013;-22
2021/11/18 00:52:32;;;;;;;;;;;;;;;;;;1012907;29;1344;-21
2021/11/18 00:53:03;;;;;;;;;;;;;;;;;;1013707;29;1133;-22
2021/11/18 00:53:38;;;;;;;;;;;;;;;;;;1013746;29;1128;-22
2021/11/18 00:54:09;;;;;;;;;;;;;;;;;;1017496;29;1283;-22
2021/11/18 00:54:46;;;;;;;;;;;;;;;;;;1018514;29;1184;-23
2021/11/18 00:55:18;;;;;;;;;;;;;;;;;;1011689;29;1512;-22
2021/11/18 00:55:49;;;;;;;;;;;;;;;;;;1009632;29;1111;-22
2021/11/18 00:56:23;;;;;;;;;;;;;;;;;;1008785;29;1509;-21
2021/11/18 00:56:53;;;;;;;;;;;;;;;;;;1007072;29;1587;-22
2021/11/18 00:57:24;;;;;;;;;;;;;;;;;;1010479;29;1050;-21
2021/11/18 00:57:55;;;;;;;;;;;;;;;;;;1014075;29;1232;-22
2021/11/18 00:58:25;;;;;;;;;;;;;;;;;;1009973;29;1214;-22
2021/11/18 00:58:57;;;;;;;;;;;;;;;;;;1014252;29;796;-22
2021/11/18 00:59:29;;;;;;;;;;;;;;;;;;1022139;28;1515;-22
2021/11/18 01:00:00;;;;;;;;;;;;;;;;;;1022560;28;1470;-21
2021/11/18 01:00:32;;;;;;;;;;;;;;;;;;1022303;29;1203;-22
2021/11/18 01:01:03;;;;;;;;;;;;;;;;;;1009243;29;1251;-21
2021/11/18 01:01:41;;;;;;;;;;;;;;;;;;1009528;29;1142;-21
2021/11/18 01:02:12;;;;;;;;;;;;;;;;;;1009398;29;1955;-23
2021/11/18 01:02:44;;;;;;;;;;;;;;;;;;1017494;28;1182;-22
2021/11/18 01:03:15;;;;;;;;;;;;;;;;;;1026161;28;1185;-22
2021/11/18 01:03:46;;;;;;;;;;;;;;;;;;1022084;29;1289;-21
2021/11/18 01:04:18;;;;;;;;;;;;;;;;;;1029838;28;1000;-22
2021/11/18 01:04:49;;;;;;;;;;;;;;;;;;1021056;28;1578;-22
2021/11/18 01:05:24;;;;;;;;;;;;;;;;;;1021566;29;1284;-21
2021/11/18 01:05:56;;;;;;;;;;;;;;;;;;1016746;29;1500;-21
2021/11/18 01:06:27;;;;;;;;;;;;;;;;;;1005851;29;1263;-22
2021/11/18 01:06:58;;;;;;;;;;;;;;;;;;1002556;29;1915;-23
2021/11/18 01:07:29;;;;;;;;;;;;;;;;;;1005669;29;1224;-22
2021/11/18 01:08:02;;;;;;;;;;;;;;;;;;1006207;29;1541;-22
2021/11/18 01:08:33;;;;;;;;;;;;;;;;;;1009970;29;1007;-21
2021/11/18 01:09:05;;;;;;;;;;;;;;;;;;1009928;29;996;-21
2021/11/18 01:09:35;;;;;;;;;;;;;;;;;;1009886;29;1067;-21
2021/11/18 01:10:08;;;;;;;;;;;;;;;;;;1010967;29;1035;-22
2021/11/18 01:10:45;;;;;;;;;;;;;;;;;;1014889;29;1258;-22
2021/11/18 01:11:21;;;;;;;;;;;;;;;;;;1017557;29;1473;-23
2021/11/18 01:11:52;;;;;;;;;;;;;;;;;;1013753;29;1124;-21
2021/11/18 01:12:26;;;;;;;;;;;;;;;;;;1009816;29;1420;-22
2021/11/18 01:12:56;;;;;;;;;;;;;;;;;;1013753;29;1169;-21
2021/11/18 01:13:28;;;;;;;;;;;;;;;;;;1014507;29;1313;-21
2021/11/18 01:14:00;;;;;;;;;;;;;;;;;;1008930;29;1629;-21
2021/11/18 01:14:33;;;;;;;;;;;;;;;;;;1006355;29;1067;-21
2021/11/18 01:15:04;;;;;;;;;;;;;;;;;;1010851;29;1278;-21
2021/11/18 01:15:37;;;;;;;;;;;;;;;;;;1012305;28;1202;-21
2021/11/18 01:16:08;;;;;;;;;;;;;;;;;;1026067;28;1201;-22
2021/11/18 01:16:40;;;;;;;;;;;;;;;;;;1017257;29;978;-22
2021/11/18 01:17:11;;;;;;;;;;;;;;;;;;1013836;29;1000;-22
2021/11/18 01:17:42;;;;;;;;;;;;;;;;;;1013804;29;1107;-22
2021/11/18 01:18:13;;;;;;;;;;;;;;;;;;1010570;29;1529;-22
2021/11/18 01:18:44;;;;;;;;;;;;;;;;;;1021765;28;1005;-21
2021/11/18 01:19:16;;;;;;;;;;;;;;;;;;1014101;29;1314;-21
2021/11/18 01:19:46;;;;;;;;;;;;;;;;;;1005526;29;1314;-22
2021/11/18 01:20:18;;;;;;;;;;;;;;;;;;1009932;29;1250;-21
2021/11/18 01:20:49;;;;;;;;;;;;;;;;;;1010030;29;1482;-21
2021/11/18 01:21:20;;;;;;;;;;;;;;;;;;1010189;29;1075;-22
2021/11/18 01:21:51;;;;;;;;;;;;;;;;;;1013832;29;978;-21
2021/11/18 01:22:22;;;;;;;;;;;;;;;;;;1008867;29;1529;-21
2021/11/18 01:22:54;;;;;;;;;;;;;;;;;;1006066;29;1142;-21
2021/11/18 01:23:26;;;;;;;;;;;;;;;;;;1014762;28;1057;-22
2021/11/18 01:23:57;;;;;;;;;;;;;;;;;;1017826;29;1361;-21
2021/11/18 01:24:40;;;;;;;;;;;;;;;;;;1017730;29;1339;-22
2021/11/18 01:25:30;;;;;;;;;;;;;;;;;;1013315;29;1447;-22
2021/11/18 01:26:03;;;;;;;;;;;;;;;;;;1013987;29;1213;-22
2021/11/18 01:26:34;;;;;;;;;;;;;;;;;;1016531;29;1423;-21
2021/11/18 01:27:06;;;;;;;;;;;;;;;;;;1016963;29;1907;-24
2021/11/18 01:27:36;;;;;;;;;;;;;;;;;;1017763;29;1336;-21
2021/11/18 01:28:21;;;;;;;;;;;;;;;;;;1021321;29;1065;-21
2021/11/18 01:28:53;;;;;;;;;;;;;;;;;;1025749;28;1188;-21
2021/11/18 01:29:25;;;;;;;;;;;;;;;;;;1023913;28;1563;-21
2021/11/18 01:29:56;;;;;;;;;;;;;;;;;;1020996;29;1087;-22
2021/11/18 01:30:28;;;;;;;;;;;;;;;;;;1018188;29;1250;-21
2021/11/18 01:30:59;;;;;;;;;;;;;;;;;;1017730;29;1509;-21
2021/11/18 01:31:30;;;;;;;;;;;;;;;;;;1018159;29;1194;-23
2021/11/18 01:32:03;;;;;;;;;;;;;;;;;;1017866;29;1572;-22
2021/11/18 01:32:40;;;;;;;;;;;;;;;;;;1019371;29;1486;-22
2021/11/18 01:33:13;;;;;;;;;;;;;;;;;;1022885;28;982;-23
2021/11/18 01:33:47;;;;;;;;;;;;;;;;;;1019344;29;1211;-21
2021/11/18 01:34:19;;;;;;;;;;;;;;;;;;1017871;29;1204;-22
2021/11/18 01:34:49;;;;;;;;;;;;;;;;;;1013952;29;1563;-22
2021/11/18 01:35:20;;;;;;;;;;;;;;;;;;1013977;29;1647;-21
2021/11/18 01:35:51;;;;;;;;;;;;;;;;;;1006743;29;1017;-21
2021/11/18 01:36:23;;;;;;;;;;;;;;;;;;1017850;29;1342;-21
2021/11/18 01:37:04;;;;;;;;;;;;;;;;;;1013686;29;1209;-22
2021/11/18 01:37:35;;;;;;;;;;;;;;;;;;1009467;29;1162;-21
2021/11/18 01:38:06;;;;;;;;;;;;;;;;;;1004368;29;1298;-21
2021/11/18 01:38:37;;;;;;;;;;;;;;;;;;1005901;29;1301;-23
2021/11/18 01:39:30;;;;;;;;;;;;;;;;;;1013096;29;1174;-22
2021/11/18 01:40:04;;;;;;;;;;;;;;;;;;1015682;29;1371;-22
2021/11/18 01:40:37;;;;;;;;;;;;;;;;;;1020215;29;1549;-21
2021/11/18 01:41:26;;;;;;;;;;;;;;;;;;1017312;29;1419;-21
2021/11/18 01:41:57;;;;;;;;;;;;;;;;;;1019639;29;1371;-21
2021/11/18 01:42:28;;;;;;;;;;;;;;;;;;1014456;29;1189;-22
2021/11/18 01:42:59;;;;;;;;;;;;;;;;;;1018706;29;899;-22
2021/11/18 01:43:31;;;;;;;;;;;;;;;;;;1021566;28;1170;-21
2021/11/18 01:44:05;;;;;;;;;;;;;;;;;;1017276;29;1333;-22
2021/11/18 01:44:40;;;;;;;;;;;;;;;;;;1020797;29;1377;-22
2021/11/18 01:45:13;;;;;;;;;;;;;;;;;;1020969;29;1058;-21
2021/11/18 01:45:43;;;;;;;;;;;;;;;;;;1020765;29;1716;-21
2021/11/18 01:46:16;;;;;;;;;;;;;;;;;;1020979;29;974;-22
2021/11/18 01:46:47;;;;;;;;;;;;;;;;;;1026260;28;1903;-22
2021/11/18 01:47:23;;;;;;;;;;;;;;;;;;1020681;29;1471;-21
2021/11/18 01:47:54;;;;;;;;;;;;;;;;;;1013004;29;1085;-21
2021/11/18 01:48:29;;;;;;;;;;;;;;;;;;1011525;29;1269;-22
2021/11/18 01:49:01;;;;;;;;;;;;;;;;;;1012352;29;1666;-21
2021/11/18 01:49:32;;;;;;;;;;;;;;;;;;1009983;29;1004;-21
2021/11/18 01:50:03;;;;;;;;;;;;;;;;;;1008969;29;1189;-22
2021/11/18 01:50:37;;;;;;;;;;;;;;;;;;1013267;29;1125;-22
2021/11/18 01:51:08;;;;;;;;;;;;;;;;;;1009507;29;1481;-22
2021/11/18 01:51:44;;;;;;;;;;;;;;;;;;1009196;29;1163;-21
2021/11/18 01:52:20;;;;;;;;;;;;;;;;;;1011519;29;1572;-22
2021/11/18 01:52:54;;;;;;;;;;;;;;;;;;1016496;29;1400;-21
2021/11/18 01:53:35;;;;;;;;;;;;;;;;;;1015528;29;1188;-22
2021/11/18 01:54:06;;;;;;;;;;;;;;;;;;1010965;29;1367;-21
2021/11/18 01:54:37;;;;;;;;;;;;;;;;;;1010365;29;1462;-21
2021/11/18 01:55:08;;;;;;;;;;;;;;;;;;1005169;29;1462;-21
2021/11/18 01:55:40;;;;;;;;;;;;;;;;;;999648;29;1411;-22
2021/11/18 01:56:13;;;;;;;;;;;;;;;;;;998917;29;1032;-23
2021/11/18 01:56:44;;;;;;;;;;;;;;;;;;1000770;29;1469;-22
2021/11/18 01:57:18;;;;;;;;;;;;;;;;;;1001952;29;1184;-23
2021/11/18 01:57:59;;;;;;;;;;;;;;;;;;1011097;29;1690;-22
2021/11/18 01:59:15;;;;;;;;;;;;;;;;;;1009351;29;1068;-22
2021/11/18 01:59:50;;;;;;;;;;;;;;;;;;1007019;29;1447;-22
2021/11/18 02:00:49;;;;;;;;;;;;;;;;;;1013396;29;1195;-21
2021/11/18 02:01:20;;;;;;;;;;;;;;;;;;1008892;29;1246;-23
2021/11/18 02:01:55;;;;;;;;;;;;;;;;;;1006993;29;1388;-22
2021/11/18 02:02:46;;;;;;;;;;;;;;;;;;1009425;29;1061;-21
2021/11/18 02:03:20;;;;;;;;;;;;;;;;;;1005913;29;1039;-21
2021/11/18 02:04:17;;;;;;;;;;;;;;;;;;1017241;29;1195;-22
2021/11/18 02:05:10;;;;;;;;;;;;;;;;;;1015351;29;1708;-21
2021/11/18 02:05:48;;;;;;;;;;;;;;;;;;1016886;29;1140;-21
2021/11/18 02:06:25;;;;;;;;;;;;;;;;;;1008986;29;1521;-21
2021/11/18 02:06:58;;;;;;;;;;;;;;;;;;1004923;29;1911;-21
2021/11/18 02:07:29;;;;;;;;;;;;;;;;;;1005653;29;1373;-22
2021/11/18 02:08:00;;;;;;;;;;;;;;;;;;1009072;29;1434;-21
2021/11/18 02:08:51;;;;;;;;;;;;;;;;;;1013152;29;1199;-21
2021/11/18 02:09:28;;;;;;;;;;;;;;;;;;1020482;29;1477;-22
2021/11/18 02:10:05;;;;;;;;;;;;;;;;;;1004983;29;1518;-22
2021/11/18 02:10:39;;;;;;;;;;;;;;;;;;1005182;29;1359;-22
2021/11/18 02:11:22;;;;;;;;;;;;;;;;;;1008937;29;1542;-22
2021/11/18 02:12:05;;;;;;;;;;;;;;;;;;1020233;28;1168;-22
2021/11/18 02:12:36;;;;;;;;;;;;;;;;;;1020983;29;1268;-21
2021/11/18 02:13:08;;;;;;;;;;;;;;;;;;1005889;29;1403;-21
2021/11/18 02:13:38;;;;;;;;;;;;;;;;;;1007265;29;946;-22
2021/11/18 02:14:13;;;;;;;;;;;;;;;;;;1008852;29;1399;-23
2021/11/18 02:14:44;;;;;;;;;;;;;;;;;;1009791;29;999;-21
2021/11/18 02:15:23;;;;;;;;;;;;;;;;;;1009291;29;1449;-22
2021/11/18 02:15:55;;;;;;;;;;;;;;;;;;1008995;29;1308;-21
2021/11/18 02:16:27;;;;;;;;;;;;;;;;;;1017933;28;1019;-22
2021/11/18 02:17:00;;;;;;;;;;;;;;;;;;1022157;28;1442;-22
2021/11/18 02:17:31;;;;;;;;;;;;;;;;;;1020276;29;1216;-22
2021/11/18 02:18:11;;;;;;;;;;;;;;;;;;1012099;29;1428;-21
2021/11/18 02:18:42;;;;;;;;;;;;;;;;;;1016631;29;1046;-21
2021/11/18 02:19:15;;;;;;;;;;;;;;;;;;1018512;29;1171;-21
2021/11/18 02:19:56;;;;;;;;;;;;;;;;;;1017918;29;2303;-22
2021/11/18 02:20:30;;;;;;;;;;;;;;;;;;1019440;29;1299;-22
2021/11/18 02:21:04;;;;;;;;;;;;;;;;;;1016560;29;1124;-21
2021/11/18 02:21:35;;;;;;;;;;;;;;;;;;1014919;29;1388;-22
2021/11/18 02:22:07;;;;;;;;;;;;;;;;;;1013890;29;1258;-22
2021/11/18 02:22:38;;;;;;;;;;;;;;;;;;1012387;29;1644;-22
2021/11/18 02:23:12;;;;;;;;;;;;;;;;;;1009152;29;1480;-23
2021/11/18 02:23:50;;;;;;;;;;;;;;;;;;1006982;29;1493;-22
2021/11/18 02:24:21;;;;;;;;;;;;;;;;;;1013176;29;1154;-21
2021/11/18 02:24:57;;;;;;;;;;;;;;;;;;1011289;29;1483;-22
2021/11/18 02:25:29;;;;;;;;;;;;;;;;;;1009732;29;1025;-21
2021/11/18 02:26:01;;;;;;;;;;;;;;;;;;1010529;29;1289;-22
2021/11/18 02:26:32;;;;;;;;;;;;;;;;;;1009656;29;1361;-21
2021/11/18 02:27:03;;;;;;;;;;;;;;;;;;1013874;29;2001;-20
2021/11/18 02:27:34;;;;;;;;;;;;;;;;;;1012682;29;1140;-22
2021/11/18 02:28:04;;;;;;;;;;;;;;;;;;1012727;29;1603;-21
2021/11/18 02:28:39;;;;;;;;;;;;;;;;;;1005368;29;1486;-21
2021/11/18 02:29:11;;;;;;;;;;;;;;;;;;1006744;29;1374;-22
2021/11/18 02:30:04;;;;;;;;;;;;;;;;;;1011996;29;1591;-21
2021/11/18 02:30:38;;;;;;;;;;;;;;;;;;1007665;29;1518;-21
2021/11/18 02:31:29;;;;;;;;;;;;;;;;;;1020010;29;1210;-21
2021/11/18 02:32:05;;;;;;;;;;;;;;;;;;1020616;29;1423;-21
2021/11/18 02:32:55;;;;;;;;;;;;;;;;;;1015421;29;1137;-22
2021/11/18 02:33:26;;;;;;;;;;;;;;;;;;1016577;29;1373;-21
2021/11/18 02:33:57;;;;;;;;;;;;;;;;;;1005692;29;1115;-20
2021/11/18 02:35:00;;;;;;;;;;;;;;;;;;1009640;29;1177;-22
2021/11/18 02:35:33;;;;;;;;;;;;;;;;;;998078;29;1177;-21
2021/11/18 02:36:04;;;;;;;;;;;;;;;;;;990611;29;1390;-21
2021/11/18 02:36:34;;;;;;;;;;;;;;;;;;1000477;29;1460;-21
2021/11/18 02:37:05;;;;;;;;;;;;;;;;;;1012942;29;1244;-21
2021/11/18 02:37:36;;;;;;;;;;;;;;;;;;1016748;29;1371;-21
2021/11/18 02:38:08;;;;;;;;;;;;;;;;;;1016773;29;1226;-21
2021/11/18 02:38:40;;;;;;;;;;;;;;;;;;1020115;29;1040;-21
2021/11/18 02:39:18;;;;;;;;;;;;;;;;;;1017624;29;1231;-21
2021/11/18 02:39:49;;;;;;;;;;;;;;;;;;1019395;29;1312;-21
2021/11/18 02:40:22;;;;;;;;;;;;;;;;;;1019261;28;1473;-21
2021/11/18 02:40:53;;;;;;;;;;;;;;;;;;1020188;29;1290;-22
2021/11/18 02:41:24;;;;;;;;;;;;;;;;;;1012431;29;1262;-21
2021/11/18 02:41:56;;;;;;;;;;;;;;;;;;1013236;29;1420;-21
2021/11/18 02:42:27;;;;;;;;;;;;;;;;;;1004896;29;1181;-21
2021/11/18 02:42:58;;;;;;;;;;;;;;;;;;1005223;29;1237;-22
2021/11/18 02:43:30;;;;;;;;;;;;;;;;;;1012567;29;1335;-21
2021/11/18 02:44:00;;;;;;;;;;;;;;;;;;1016725;29;1304;-21
2021/11/18 02:44:32;;;;;;;;;;;;;;;;;;1016528;29;1237;-21
2021/11/18 02:45:03;;;;;;;;;;;;;;;;;;1013068;29;1263;-21
2021/11/18 02:45:35;;;;;;;;;;;;;;;;;;1017859;28;947;-21
2021/11/18 02:46:07;;;;;;;;;;;;;;;;;;1020537;29;1379;-21
2021/11/18 02:46:37;;;;;;;;;;;;;;;;;;1025408;28;1097;-21
2021/11/18 02:47:13;;;;;;;;;;;;;;;;;;1024174;28;1995;-21
2021/11/18 02:47:44;;;;;;;;;;;;;;;;;;1017486;29;1272;-21
2021/11/18 02:48:16;;;;;;;;;;;;;;;;;;1020225;29;1777;-21
2021/11/18 02:48:47;;;;;;;;;;;;;;;;;;1017554;29;1252;-21
2021/11/18 02:49:22;;;;;;;;;;;;;;;;;;1016952;29;1502;-21
2021/11/18 02:49:53;;;;;;;;;;;;;;;;;;1012877;29;1329;-21
2021/11/18 02:50:28;;;;;;;;;;;;;;;;;;1012797;29;1010;-21
2021/11/18 02:51:00;;;;;;;;;;;;;;;;;;1008922;29;1501;-21
2021/11/18 02:51:31;;;;;;;;;;;;;;;;;;1008259;29;1258;-21
2021/11/18 02:52:05;;;;;;;;;;;;;;;;;;1010434;29;1147;-20
2021/11/18 02:52:37;;;;;;;;;;;;;;;;;;1012911;29;1489;-21
2021/11/18 02:53:08;;;;;;;;;;;;;;;;;;1016664;29;1247;-22
2021/11/18 02:53:39;;;;;;;;;;;;;;;;;;1012705;29;2133;-21
2021/11/18 02:54:09;;;;;;;;;;;;;;;;;;1012900;29;1825;-21
2021/11/18 02:54:41;;;;;;;;;;;;;;;;;;1013004;29;1272;-21
2021/11/18 02:55:14;;;;;;;;;;;;;;;;;;1009350;29;1428;-21
2021/11/18 02:55:46;;;;;;;;;;;;;;;;;;1009652;29;1203;-22
2021/11/18 02:56:18;;;;;;;;;;;;;;;;;;1013598;29;1080;-22
2021/11/18 02:56:52;;;;;;;;;;;;;;;;;;1016552;29;1419;-20
2021/11/18 02:57:23;;;;;;;;;;;;;;;;;;1015854;29;1214;-21
2021/11/18 02:57:54;;;;;;;;;;;;;;;;;;1015146;29;1438;-21
2021/11/18 02:58:25;;;;;;;;;;;;;;;;;;1010293;29;1424;-21
2021/11/18 02:58:56;;;;;;;;;;;;;;;;;;1016932;28;1339;-21
2021/11/18 02:59:28;;;;;;;;;;;;;;;;;;1016642;29;1493;-21
2021/11/18 03:00:13;;;;;;;;;;;;;;;;;;1012106;29;1472;-21
2021/11/18 03:00:44;;;;;;;;;;;;;;;;;;1011059;29;1545;-22
2021/11/18 03:01:14;;;;;;;;;;;;;;;;;;1014656;29;1205;-21
2021/11/18 03:01:46;;;;;;;;;;;;;;;;;;1020482;28;1036;-22
2021/11/18 03:02:17;;;;;;;;;;;;;;;;;;1024603;28;1404;-21
2021/11/18 03:02:48;;;;;;;;;;;;;;;;;;1016612;29;1061;-22
2021/11/18 03:03:19;;;;;;;;;;;;;;;;;;1019931;29;1720;-21
2021/11/18 03:03:50;;;;;;;;;;;;;;;;;;1020562;29;1272;-21
2021/11/18 03:04:20;;;;;;;;;;;;;;;;;;1016813;29;1247;-21
2021/11/18 03:04:51;;;;;;;;;;;;;;;;;;1012585;29;1421;-22
2021/11/18 03:05:23;;;;;;;;;;;;;;;;;;1012645;29;1078;-21
2021/11/18 03:05:55;;;;;;;;;;;;;;;;;;1009010;29;1316;-21
2021/11/18 03:06:26;;;;;;;;;;;;;;;;;;1007881;29;1342;-20
2021/11/18 03:07:00;;;;;;;;;;;;;;;;;;1005666;29;2238;-21
2021/11/18 03:07:30;;;;;;;;;;;;;;;;;;1012197;29;1311;-21
2021/11/18 03:08:02;;;;;;;;;;;;;;;;;;1012961;29;1173;-21
2021/11/18 03:08:32;;;;;;;;;;;;;;;;;;1008678;29;1289;-21
2021/11/18 03:09:03;;;;;;;;;;;;;;;;;;1008988;29;1078;-21
2021/11/18 03:09:34;;;;;;;;;;;;;;;;;;1009305;29;1274;-21
2021/11/18 03:10:07;;;;;;;;;;;;;;;;;;1017049;29;1209;-22
2021/11/18 03:10:38;;;;;;;;;;;;;;;;;;1021606;28;1040;-21
2021/11/18 03:11:08;;;;;;;;;;;;;;;;;;1021799;28;1221;-21
2021/11/18 03:11:39;;;;;;;;;;;;;;;;;;1016684;29;1167;-21
2021/11/18 03:12:11;;;;;;;;;;;;;;;;;;1009107;29;996;-21
2021/11/18 03:12:42;;;;;;;;;;;;;;;;;;1008115;29;1523;-21
2021/11/18 03:13:14;;;;;;;;;;;;;;;;;;1009594;29;1246;-21
2021/11/18 03:13:46;;;;;;;;;;;;;;;;;;1012254;29;1414;-21
2021/11/18 03:14:17;;;;;;;;;;;;;;;;;;1005067;29;1094;-21
2021/11/18 03:14:52;;;;;;;;;;;;;;;;;;1001268;29;1200;-21
2021/11/18 03:15:24;;;;;;;;;;;;;;;;;;1001712;29;1337;-21
2021/11/18 03:15:57;;;;;;;;;;;;;;;;;;1008909;29;995;-21
2021/11/18 03:16:27;;;;;;;;;;;;;;;;;;1019559;28;1019;-21
2021/11/18 03:16:58;;;;;;;;;;;;;;;;;;1024068;28;1409;-21
2021/11/18 03:17:37;;;;;;;;;;;;;;;;;;1024755;28;1180;-21
2021/11/18 03:18:23;;;;;;;;;;;;;;;;;;1013352;29;1487;-21
2021/11/18 03:18:54;;;;;;;;;;;;;;;;;;1012317;29;1186;-21
2021/11/18 03:19:25;;;;;;;;;;;;;;;;;;1016774;29;1036;-21
2021/11/18 03:19:57;;;;;;;;;;;;;;;;;;1009764;29;915;-21
2021/11/18 03:20:30;;;;;;;;;;;;;;;;;;1012991;29;1305;-21
2021/11/18 03:21:02;;;;;;;;;;;;;;;;;;1011606;29;988;-20
2021/11/18 03:21:33;;;;;;;;;;;;;;;;;;1001974;29;1168;-22
2021/11/18 03:22:04;;;;;;;;;;;;;;;;;;1012432;29;1480;-22
2021/11/18 03:22:35;;;;;;;;;;;;;;;;;;1013134;29;1190;-21
2021/11/18 03:23:06;;;;;;;;;;;;;;;;;;1012852;29;1160;-22
2021/11/18 03:23:36;;;;;;;;;;;;;;;;;;1012278;29;1331;-21
2021/11/18 03:24:13;;;;;;;;;;;;;;;;;;1016614;29;1078;-21
2021/11/18 03:24:43;;;;;;;;;;;;;;;;;;1018026;28;1427;-21
2021/11/18 03:25:17;;;;;;;;;;;;;;;;;;1012782;29;1159;-22
2021/11/18 03:25:52;;;;;;;;;;;;;;;;;;1008986;29;1450;-22
2021/11/18 03:26:29;;;;;;;;;;;;;;;;;;1000768;29;1413;-21
2021/11/18 03:27:03;;;;;;;;;;;;;;;;;;1003394;29;1965;-22
2021/11/18 03:27:33;;;;;;;;;;;;;;;;;;1003555;29;1453;-21
2021/11/18 03:28:04;;;;;;;;;;;;;;;;;;1013452;28;1215;-21
2021/11/18 03:28:35;;;;;;;;;;;;;;;;;;1020915;28;1579;-21
2021/11/18 03:29:07;;;;;;;;;;;;;;;;;;1016898;29;1225;-20
2021/11/18 03:29:37;;;;;;;;;;;;;;;;;;1017214;29;1501;-21
2021/11/18 03:30:09;;;;;;;;;;;;;;;;;;1013364;29;1430;-23
2021/11/18 03:30:41;;;;;;;;;;;;;;;;;;1013433;29;1218;-22
2021/11/18 03:31:14;;;;;;;;;;;;;;;;;;1020825;29;1313;-21
2021/11/18 03:31:45;;;;;;;;;;;;;;;;;;1017493;29;1427;-21
2021/11/18 03:32:16;;;;;;;;;;;;;;;;;;1020196;29;963;-21
2021/11/18 03:32:47;;;;;;;;;;;;;;;;;;1016787;29;1235;-21
2021/11/18 03:33:19;;;;;;;;;;;;;;;;;;1016756;29;1233;-22
2021/11/18 03:34:13;;;;;;;;;;;;;;;;;;1013890;29;1128;-21
2021/11/18 03:34:47;;;;;;;;;;;;;;;;;;1017810;29;1230;-21
2021/11/18 03:35:18;;;;;;;;;;;;;;;;;;1025016;28;1288;-20
2021/11/18 03:35:53;;;;;;;;;;;;;;;;;;1024290;28;1475;-21
2021/11/18 03:36:25;;;;;;;;;;;;;;;;;;1012722;29;1057;-23
2021/11/18 03:36:56;;;;;;;;;;;;;;;;;;1008731;29;1200;-21
2021/11/18 03:37:27;;;;;;;;;;;;;;;;;;1009851;29;1120;-21
2021/11/18 03:38:00;;;;;;;;;;;;;;;;;;1009674;29;1238;-20
2021/11/18 03:38:32;;;;;;;;;;;;;;;;;;1012663;29;1200;-21
2021/11/18 03:39:21;;;;;;;;;;;;;;;;;;1018879;29;929;-22
2021/11/18 03:39:53;;;;;;;;;;;;;;;;;;1022905;28;1535;-21
2021/11/18 03:40:25;;;;;;;;;;;;;;;;;;1020804;29;1193;-21
2021/11/18 03:41:03;;;;;;;;;;;;;;;;;;1008595;29;1732;-21
2021/11/18 03:41:36;;;;;;;;;;;;;;;;;;1010280;29;909;-21
2021/11/18 03:42:08;;;;;;;;;;;;;;;;;;1012884;29;968;-21
2021/11/18 03:42:39;;;;;;;;;;;;;;;;;;1016152;29;1387;-21
2021/11/18 03:43:12;;;;;;;;;;;;;;;;;;1021451;28;1000;-21
2021/11/18 03:43:48;;;;;;;;;;;;;;;;;;1012641;29;1324;-22
2021/11/18 03:44:21;;;;;;;;;;;;;;;;;;1013892;29;1353;-21
2021/11/18 03:44:52;;;;;;;;;;;;;;;;;;1016466;29;1076;-21
2021/11/18 03:45:28;;;;;;;;;;;;;;;;;;1021480;28;1574;-21
2021/11/18 03:46:00;;;;;;;;;;;;;;;;;;1024689;28;1373;-22
2021/11/18 03:46:32;;;;;;;;;;;;;;;;;;1008919;29;1213;-21
2021/11/18 03:47:04;;;;;;;;;;;;;;;;;;1004430;29;1907;-21
2021/11/18 03:47:38;;;;;;;;;;;;;;;;;;1006152;29;1180;-21
2021/11/18 03:48:09;;;;;;;;;;;;;;;;;;1011406;29;1400;-21
2021/11/18 03:48:41;;;;;;;;;;;;;;;;;;1020554;29;1311;-21
2021/11/18 03:49:13;;;;;;;;;;;;;;;;;;1016253;29;1224;-21
2021/11/18 03:49:47;;;;;;;;;;;;;;;;;;1009804;29;1352;-21
2021/11/18 03:50:20;;;;;;;;;;;;;;;;;;1013632;29;1309;-21